createdAt,value
2022-11-06T00:01:16.195Z,10.71
2022-11-06T00:04:19.005Z,10.70
2022-11-06T00:07:21.589Z,10.78
2022-11-06T00:10:24.728Z,10.83
2022-11-06T00:13:27.504Z,10.84
2022-11-06T00:16:30.701Z,10.70
2022-11-06T00:19:33.291Z,10.75
2022-11-06T00:22:37.561Z,10.70
2022-11-06T00:25:41.326Z,10.59
2022-11-06T00:28:45.049Z,10.78
2022-11-06T00:31:50.098Z,10.83
2022-11-06T00:34:53.121Z,10.74
2022-11-06T00:37:57.449Z,10.82
2022-11-06T00:41:05.061Z,10.85
2022-11-06T00:44:09.813Z,10.80
2022-11-06T00:47:12.813Z,10.96
2022-11-06T00:50:16.180Z,10.93
2022-11-06T00:53:19.150Z,10.88
2022-11-06T00:56:23.419Z,10.88
2022-11-06T00:59:26.328Z,10.87
2022-11-06T01:02:29.053Z,10.84
2022-11-06T01:05:32.875Z,10.93
2022-11-06T01:08:36.189Z,10.88
2022-11-06T01:12:11.245Z,10.80
2022-11-06T01:15:04.935Z,10.83
2022-11-06T01:18:07.819Z,10.78
2022-11-06T01:21:14.560Z,10.75
2022-11-06T01:24:23.521Z,10.75
2022-11-06T01:27:27.251Z,10.68
2022-11-06T01:30:30.856Z,10.53
2022-11-06T01:33:33.907Z,10.47
2022-11-06T01:36:36.785Z,10.50
2022-11-06T01:39:39.638Z,10.75
2022-11-06T01:42:44.749Z,10.67
2022-11-06T01:45:55.607Z,10.70
2022-11-06T01:49:06.997Z,10.71
2022-11-06T01:52:13.093Z,10.69
2022-11-06T01:55:24.292Z,10.61
2022-11-06T01:58:30.568Z,10.59
2022-11-06T02:01:33.782Z,10.67
2022-11-06T02:04:40.837Z,10.64
2022-11-06T02:07:44.171Z,10.75
2022-11-06T02:10:48.330Z,10.79
2022-11-06T02:14:11.229Z,10.74
2022-11-06T02:17:47.868Z,10.93
2022-11-06T02:20:53.026Z,11.05
2022-11-06T02:24:14.121Z,11.09
2022-11-06T02:27:20.041Z,10.80
2022-11-06T02:30:23.035Z,10.85
2022-11-06T02:33:38.468Z,10.96
2022-11-06T02:36:52.801Z,10.94
2022-11-06T02:39:58.780Z,10.87
2022-11-06T02:43:07.008Z,10.88
2022-11-06T02:46:19.532Z,10.92
2022-11-06T02:49:31.709Z,10.82
2022-11-06T02:53:11.875Z,10.88
2022-11-06T02:56:27.492Z,10.72
2022-11-06T02:59:50.417Z,10.87
2022-11-06T03:03:01.790Z,10.73
2022-11-06T03:06:20.235Z,10.57
2022-11-06T03:09:29.992Z,10.47
2022-11-06T03:12:50.120Z,10.41
2022-11-06T03:16:25.510Z,10.46
2022-11-06T03:19:35.693Z,10.35
2022-11-06T03:22:44.936Z,10.37
2022-11-06T03:26:05.285Z,10.31
2022-11-06T03:29:14.881Z,10.38
2022-11-06T03:32:20.106Z,10.32
2022-11-06T03:35:23.105Z,10.21
2022-11-06T03:38:31.018Z,10.18
2022-11-06T03:41:54.452Z,10.22
2022-11-06T03:45:01.084Z,10.13
2022-11-06T03:48:11.874Z,10.14
2022-11-06T03:51:29.577Z,10.15
2022-11-06T03:54:49.377Z,10.22
2022-11-06T03:57:58.897Z,10.31
2022-11-06T04:01:05.613Z,10.18
2022-11-06T04:04:23.742Z,10.28
2022-11-06T04:07:32.454Z,10.39
2022-11-06T04:10:58.544Z,10.32
2022-11-06T04:14:04.578Z,10.43
2022-11-06T04:17:11.309Z,10.36
2022-11-06T04:20:43.138Z,10.49
2022-11-06T04:24:16.692Z,10.57
2022-11-06T04:27:43.478Z,10.42
2022-11-06T04:31:25.192Z,10.38
2022-11-06T04:34:47.835Z,10.50
2022-11-06T04:38:21.095Z,10.49
2022-11-06T04:41:39.026Z,10.53
2022-11-06T04:44:49.225Z,10.48
2022-11-06T04:47:53.664Z,10.50
2022-11-06T04:51:01.871Z,10.56
2022-11-06T04:54:07.279Z,10.76
2022-11-06T04:57:11.052Z,10.68
2022-11-06T05:00:15.200Z,10.64
2022-11-06T05:03:19.148Z,10.64
2022-11-06T05:06:27.008Z,10.59
2022-11-06T05:09:33.024Z,10.56
2022-11-06T05:12:36.807Z,10.40
2022-11-06T05:15:39.745Z,10.43
2022-11-06T05:18:42.307Z,10.30
2022-11-06T05:22:06.143Z,10.31
2022-11-06T05:25:08.907Z,10.18
2022-11-06T05:28:12.011Z,10.08
2022-11-06T05:31:14.765Z,10.07
2022-11-06T05:34:17.682Z,10.11
2022-11-06T05:37:20.280Z,10.14
2022-11-06T05:40:23.179Z,10.04
2022-11-06T05:43:25.868Z,9.92
2022-11-06T05:46:47.824Z,9.95
2022-11-06T05:49:51.254Z,9.93
2022-11-06T05:52:54.147Z,9.88
2022-11-06T05:55:56.781Z,9.97
2022-11-06T05:58:59.687Z,10.01
2022-11-06T06:02:02.352Z,9.94
2022-11-06T06:05:07.674Z,9.94
2022-11-06T06:08:10.406Z,9.92
2022-11-06T06:11:13.449Z,9.85
2022-11-06T06:14:16.005Z,9.78
2022-11-06T06:17:19.323Z,9.79
2022-11-06T06:20:23.072Z,9.78
2022-11-06T06:23:25.982Z,9.68
2022-11-06T06:26:28.613Z,9.65
2022-11-06T06:29:31.544Z,9.58
2022-11-06T06:32:34.397Z,9.55
2022-11-06T06:35:37.926Z,9.50
2022-11-06T06:38:41.664Z,9.51
2022-11-06T06:41:44.597Z,9.54
2022-11-06T06:44:47.959Z,9.52
2022-11-06T06:47:50.895Z,9.55
2022-11-06T06:50:56.828Z,9.51
2022-11-06T06:54:00.326Z,9.56
2022-11-06T06:57:03.263Z,9.59
2022-11-06T07:00:06.850Z,9.57
2022-11-06T07:03:10.487Z,9.57
2022-11-06T07:06:13.594Z,9.52
2022-11-06T07:09:17.305Z,9.53
2022-11-06T07:12:20.138Z,9.58
2022-11-06T07:15:22.763Z,9.57
2022-11-06T07:18:25.763Z,9.58
2022-11-06T07:21:28.332Z,9.61
2022-11-06T07:24:31.283Z,9.55
2022-11-06T07:27:33.963Z,9.67
2022-11-06T07:30:37.162Z,9.62
2022-11-06T07:33:39.839Z,9.70
2022-11-06T07:36:43.091Z,9.70
2022-11-06T07:39:46.883Z,9.65
2022-11-06T07:42:49.829Z,9.69
2022-11-06T07:45:52.587Z,9.73
2022-11-06T07:48:55.488Z,9.77
2022-11-06T07:51:58.195Z,9.77
2022-11-06T07:55:01.007Z,9.80
2022-11-06T07:58:03.670Z,9.84
2022-11-06T08:01:06.759Z,9.87
2022-11-06T08:04:12.000Z,9.83
2022-11-06T08:07:14.800Z,9.87
2022-11-06T08:10:18.000Z,9.91
2022-11-06T08:13:20.859Z,9.88
2022-11-06T08:16:23.975Z,9.88
2022-11-06T08:19:26.669Z,9.93
2022-11-06T08:22:29.997Z,9.98
2022-11-06T08:25:33.412Z,10.04
2022-11-06T08:28:36.372Z,10.06
2022-11-06T08:31:38.994Z,10.09
2022-11-06T08:34:42.473Z,10.13
2022-11-06T08:37:45.417Z,10.17
2022-11-06T08:40:53.163Z,10.23
2022-11-06T08:43:56.309Z,10.32
2022-11-06T08:46:59.218Z,10.33
2022-11-06T08:50:01.982Z,10.41
2022-11-06T08:53:06.630Z,10.36
2022-11-06T08:56:09.344Z,10.41
2022-11-06T08:59:12.426Z,10.46
2022-11-06T09:02:15.554Z,10.59
2022-11-06T09:05:18.528Z,10.53
2022-11-06T09:08:21.225Z,10.51
2022-11-06T09:11:24.243Z,10.55
2022-11-06T09:14:27.379Z,10.68
2022-11-06T09:17:30.213Z,10.70
2022-11-06T09:20:34.190Z,10.70
2022-11-06T09:23:38.338Z,10.63
2022-11-06T09:26:41.064Z,10.74
2022-11-06T09:29:44.673Z,10.75
2022-11-06T09:32:55.214Z,10.84
2022-11-06T09:35:58.085Z,11.05
2022-11-06T09:39:00.775Z,11.12
2022-11-06T09:42:11.614Z,11.20
2022-11-06T09:45:24.810Z,11.25
2022-11-06T09:48:42.852Z,11.29
2022-11-06T09:51:59.262Z,11.47
2022-11-06T09:55:09.771Z,11.63
2022-11-06T09:58:23.632Z,11.58
2022-11-06T10:01:48.490Z,11.65
2022-11-06T10:05:26.036Z,11.69
2022-11-06T10:08:30.671Z,11.71
2022-11-06T10:11:47.805Z,11.68
2022-11-06T10:14:50.386Z,11.69
2022-11-06T10:18:02.521Z,11.67
2022-11-06T10:21:21.687Z,11.81
2022-11-06T10:24:49.197Z,11.81
2022-11-06T10:28:03.859Z,11.77
2022-11-06T10:31:12.732Z,11.71
2022-11-06T10:34:33.116Z,11.61
2022-11-06T10:37:44.930Z,11.54
2022-11-06T10:40:49.479Z,11.74
2022-11-06T10:44:07.038Z,11.65
2022-11-06T10:47:26.875Z,11.80
2022-11-06T10:50:39.590Z,11.95
2022-11-06T10:54:01.261Z,11.91
2022-11-06T10:57:36.419Z,11.80
2022-11-06T11:00:41.033Z,11.74
2022-11-06T11:03:47.413Z,11.85
2022-11-06T11:06:50.639Z,11.83
2022-11-06T11:09:54.043Z,11.89
2022-11-06T11:13:05.290Z,11.78
2022-11-06T11:16:35.881Z,11.63
2022-11-06T11:19:42.082Z,11.69
2022-11-06T11:22:45.174Z,11.69
2022-11-06T11:25:52.450Z,11.65
2022-11-06T11:28:59.198Z,11.76
2022-11-06T11:32:05.605Z,11.79
2022-11-06T11:35:11.408Z,11.86
2022-11-06T11:38:17.230Z,12.01
2022-11-06T11:41:20.366Z,11.97
2022-11-06T11:44:25.799Z,11.89
2022-11-06T11:47:28.851Z,11.76
2022-11-06T11:50:33.893Z,11.84
2022-11-06T11:53:38.949Z,11.72
2022-11-06T11:57:05.829Z,11.63
2022-11-06T12:00:16.487Z,11.59
2022-11-06T12:03:22.030Z,11.53
2022-11-06T12:06:24.594Z,11.51
2022-11-06T12:09:30.215Z,11.61
2022-11-06T12:12:34.616Z,11.68
2022-11-06T12:16:02.175Z,11.76
2022-11-06T12:19:05.561Z,11.76
2022-11-06T12:22:19.791Z,11.82
2022-11-06T12:25:38.981Z,11.82
2022-11-06T12:28:44.685Z,11.89
2022-11-06T12:31:50.992Z,11.89
2022-11-06T12:35:17.659Z,11.82
2022-11-06T12:39:00.974Z,11.74
2022-11-06T12:42:06.686Z,12.00
2022-11-06T12:45:15.066Z,12.03
2022-11-06T12:48:48.433Z,12.16
2022-11-06T12:52:35.713Z,12.04
2022-11-06T12:55:50.334Z,12.04
2022-11-06T12:59:27.488Z,11.96
2022-11-06T13:03:01.641Z,11.90
2022-11-06T13:06:15.150Z,11.91
2022-11-06T13:09:38.180Z,11.91
2022-11-06T13:13:18.287Z,11.79
2022-11-06T13:16:49.269Z,11.81
2022-11-06T13:20:09.071Z,11.79
2022-11-06T13:23:28.296Z,11.68
2022-11-06T13:26:39.424Z,11.59
2022-11-06T13:29:43.810Z,11.51
2022-11-06T13:32:56.024Z,11.54
2022-11-06T13:36:00.521Z,11.53
2022-11-06T13:39:08.165Z,11.69
2022-11-06T13:42:22.331Z,11.68
2022-11-06T13:45:26.258Z,11.72
2022-11-06T13:48:43.310Z,11.68
2022-11-06T13:51:55.209Z,11.69
2022-11-06T13:55:08.213Z,11.63
2022-11-06T13:58:32.748Z,11.68
2022-11-06T14:01:55.736Z,11.64
2022-11-06T14:05:17.531Z,11.55
2022-11-06T14:08:21.261Z,11.64
2022-11-06T14:11:31.623Z,11.63
2022-11-06T14:14:34.975Z,11.62
2022-11-06T14:17:37.873Z,11.57
2022-11-06T14:20:41.147Z,11.54
2022-11-06T14:23:44.646Z,11.52
2022-11-06T14:26:49.980Z,11.56
2022-11-06T14:30:18.894Z,11.47
2022-11-06T14:33:40.444Z,11.26
2022-11-06T14:36:43.397Z,11.14
2022-11-06T14:39:55.222Z,11.15
2022-11-06T14:42:58.539Z,11.18
2022-11-06T14:46:06.608Z,11.26
2022-11-06T14:49:26.544Z,11.17
2022-11-06T14:52:38.475Z,11.18
2022-11-06T14:55:46.548Z,11.16
2022-11-06T14:58:56.019Z,11.07
2022-11-06T15:02:13.131Z,10.90
2022-11-06T15:05:19.579Z,10.85
2022-11-06T15:08:47.167Z,10.72
2022-11-06T15:11:49.750Z,10.66
2022-11-06T15:14:55.504Z,10.63
2022-11-06T15:17:59.760Z,10.45
2022-11-06T15:21:07.629Z,10.32
2022-11-06T15:24:34.648Z,10.26
2022-11-06T15:27:48.300Z,10.28
2022-11-06T15:30:56.286Z,10.25
2022-11-06T15:34:19.700Z,10.26
2022-11-06T15:37:30.257Z,10.33
2022-11-06T15:40:36.295Z,10.47
2022-11-06T15:43:39.969Z,10.56
2022-11-06T15:46:54.164Z,10.68
2022-11-06T15:50:19.223Z,10.82
2022-11-06T15:53:26.607Z,10.92
2022-11-06T15:56:32.851Z,10.90
2022-11-06T15:59:36.267Z,11.02
2022-11-06T16:03:00.579Z,11.02
2022-11-06T16:06:04.610Z,11.02
2022-11-06T16:09:15.807Z,11.04
2022-11-06T16:12:20.040Z,11.07
2022-11-06T16:15:56.851Z,11.17
2022-11-06T16:19:00.569Z,11.22
2022-11-06T16:22:07.752Z,11.28
2022-11-06T16:25:20.606Z,11.36
2022-11-06T16:28:27.470Z,11.43
2022-11-06T16:31:31.982Z,11.47
2022-11-06T16:34:42.272Z,11.38
2022-11-06T16:37:46.502Z,11.48
2022-11-06T16:40:52.310Z,11.52
2022-11-06T16:44:30.899Z,11.50
2022-11-06T16:47:35.190Z,11.49
2022-11-06T16:50:54.517Z,11.47
2022-11-06T16:54:02.524Z,11.43
2022-11-06T16:57:11.561Z,11.39
2022-11-06T17:00:21.299Z,11.31
2022-11-06T17:03:26.481Z,11.36
2022-11-06T17:06:32.855Z,11.24
2022-11-06T17:09:36.495Z,11.26
2022-11-06T17:12:39.833Z,11.39
2022-11-06T17:15:45.845Z,11.32
2022-11-06T17:18:49.025Z,11.44
2022-11-06T17:21:55.161Z,11.48
2022-11-06T17:24:57.821Z,11.34
2022-11-06T17:28:00.730Z,11.30
2022-11-06T17:31:04.216Z,11.36
2022-11-06T17:34:07.588Z,11.48
2022-11-06T17:37:12.485Z,11.39
2022-11-06T17:40:15.739Z,11.44
2022-11-06T17:43:19.095Z,11.44
2022-11-06T17:46:22.061Z,11.57
2022-11-06T17:49:26.158Z,11.53
2022-11-06T17:52:29.849Z,11.43
2022-11-06T17:55:32.530Z,11.44
2022-11-06T17:58:35.710Z,11.49
2022-11-06T18:01:38.955Z,11.49
2022-11-06T18:04:42.406Z,11.48
2022-11-06T18:07:45.473Z,11.50
2022-11-06T18:10:55.637Z,11.42
2022-11-06T18:13:59.801Z,11.30
2022-11-06T18:17:03.414Z,11.32
2022-11-06T18:20:07.503Z,11.41
2022-11-06T18:23:11.308Z,11.19
2022-11-06T18:26:14.657Z,10.94
2022-11-06T18:29:19.973Z,10.83
2022-11-06T18:32:22.531Z,10.87
2022-11-06T18:35:25.968Z,10.83
2022-11-06T18:38:29.362Z,10.94
2022-11-06T18:41:32.692Z,11.03
2022-11-06T18:44:41.673Z,11.06
2022-11-06T18:47:52.245Z,10.73
2022-11-06T18:50:55.015Z,10.41
2022-11-06T18:54:01.948Z,10.34
2022-11-06T18:57:06.083Z,10.40
2022-11-06T19:00:10.251Z,10.34
2022-11-06T19:03:13.492Z,10.26
2022-11-06T19:06:19.576Z,10.48
2022-11-06T19:09:22.890Z,10.54
2022-11-06T19:12:27.609Z,10.56
2022-11-06T19:15:31.213Z,10.49
2022-11-06T19:18:37.927Z,10.54
2022-11-06T19:21:46.687Z,10.62
2022-11-06T19:24:50.237Z,10.69
2022-11-06T19:27:55.869Z,10.78
2022-11-06T19:30:59.373Z,10.88
2022-11-06T19:34:03.565Z,10.86
2022-11-06T19:37:07.484Z,10.92
2022-11-06T19:40:11.986Z,10.99
2022-11-06T19:43:15.686Z,11.08
2022-11-06T19:46:25.086Z,11.16
2022-11-06T19:49:32.194Z,11.11
2022-11-06T19:52:42.859Z,11.15
2022-11-06T19:55:48.471Z,11.11
2022-11-06T19:58:52.560Z,11.21
2022-11-06T20:01:56.194Z,11.27
2022-11-06T20:04:59.848Z,11.28
2022-11-06T20:08:02.995Z,11.14
2022-11-06T20:11:07.820Z,11.11
2022-11-06T20:14:10.890Z,10.98
2022-11-06T20:17:19.327Z,10.98
2022-11-06T20:20:22.206Z,11.04
2022-11-06T20:23:27.893Z,11.12
2022-11-06T20:26:31.985Z,11.27
2022-11-06T20:29:35.272Z,11.33
2022-11-06T20:32:38.742Z,11.40
2022-11-06T20:35:42.393Z,11.39
2022-11-06T20:38:46.591Z,11.42
2022-11-06T20:41:51.377Z,11.31
2022-11-06T20:44:55.910Z,11.38
2022-11-06T20:48:00.161Z,11.35
2022-11-06T20:51:07.087Z,11.30
2022-11-06T20:54:11.353Z,11.03
2022-11-06T20:57:15.917Z,11.05
2022-11-06T21:00:19.450Z,10.99
2022-11-06T21:03:22.930Z,10.93
2022-11-06T21:06:27.532Z,11.03
2022-11-06T21:09:30.608Z,10.94
2022-11-06T21:12:33.986Z,10.82
2022-11-06T21:15:38.362Z,10.72
2022-11-06T21:18:43.406Z,10.67
2022-11-06T21:21:46.643Z,10.68
2022-11-06T21:24:51.108Z,10.60
2022-11-06T21:27:53.896Z,10.62
2022-11-06T21:30:58.549Z,10.74
2022-11-06T21:34:03.385Z,10.58
2022-11-06T21:37:06.617Z,10.47
2022-11-06T21:40:10.357Z,10.46
2022-11-06T21:43:13.870Z,10.67
2022-11-06T21:46:18.650Z,10.74
2022-11-06T21:49:21.721Z,10.77
2022-11-06T21:52:42.938Z,10.46
2022-11-06T21:56:02.015Z,10.52
2022-11-06T21:59:07.244Z,10.50
2022-11-06T22:02:10.507Z,10.52
2022-11-06T22:05:13.658Z,10.27
2022-11-06T22:08:16.478Z,10.07
2022-11-06T22:11:20.856Z,10.23
2022-11-06T22:14:23.429Z,10.47
2022-11-06T22:17:26.734Z,10.58
2022-11-06T22:20:29.224Z,10.60
2022-11-06T22:23:32.161Z,10.49
2022-11-06T22:26:36.327Z,10.51
2022-11-06T22:29:39.437Z,10.60
2022-11-06T22:32:41.995Z,10.68
2022-11-06T22:35:44.927Z,10.72
2022-11-06T22:38:47.858Z,10.78
2022-11-06T22:41:50.822Z,10.70
2022-11-06T22:44:53.725Z,10.74
2022-11-06T22:47:56.651Z,10.80
2022-11-06T22:51:04.411Z,10.93
2022-11-06T22:54:07.434Z,11.01
2022-11-06T22:57:09.984Z,11.04
2022-11-06T23:00:13.860Z,11.03
2022-11-06T23:03:16.907Z,11.19
2022-11-06T23:06:20.189Z,11.02
2022-11-06T23:09:22.672Z,10.98
2022-11-06T23:12:25.564Z,11.16
2022-11-06T23:15:28.195Z,11.07
2022-11-06T23:18:31.469Z,10.92
2022-11-06T23:21:34.056Z,11.09
2022-11-06T23:24:36.936Z,11.02
2022-11-06T23:27:40.581Z,11.09
2022-11-06T23:30:46.185Z,11.10
2022-11-06T23:33:48.962Z,11.09
2022-11-06T23:36:51.885Z,11.08
2022-11-06T23:39:54.642Z,11.10
2022-11-06T23:42:57.793Z,11.02
2022-11-06T23:46:00.361Z,11.40
2022-11-06T23:49:03.240Z,11.25
2022-11-06T23:52:05.857Z,11.24
2022-11-06T23:55:09.121Z,11.28
2022-11-06T23:58:11.857Z,11.33
